Time;durP1;ratioP1;P1;durP2;ratioP2;P2;SDS_P1;SDS_P2;PMS_P1;PMS_P2;Temp;Humidity;BMP_temperature;BMP_pressure;BME280_temperature;BME280_humidity;BME280_pressure;Samples;Min_cycle;Max_cycle;Signal;HPM_P1;HPM_P2
2023/09/18 00:00:42;;;;;;;3.27;3.10;;;24.70;51.60;;;;;;4949209;28;20471;-65
2023/09/18 00:03:08;;;;;;;3.13;2.93;;;24.60;51.50;;;;;;4951238;28;20799;-64
2023/09/18 00:05:34;;;;;;;3.43;3.23;;;24.60;51.50;;;;;;4948167;28;20261;-67
2023/09/18 00:08:02;;;;;;;3.47;3.27;;;24.60;51.60;;;;;;4947549;28;21008;-64
2023/09/18 00:10:28;;;;;;;3.20;3.00;;;24.70;51.60;;;;;;4948967;28;20231;-66
2023/09/18 00:12:54;;;;;;;3.10;3.00;;;24.60;51.50;;;;;;4948636;28;21127;-66
2023/09/18 00:15:20;;;;;;;3.57;3.37;;;24.60;51.60;;;;;;4966463;28;20469;-64
2023/09/18 00:17:46;;;;;;;2.90;2.77;;;24.60;51.50;;;;;;4957901;28;20236;-67
2023/09/18 00:20:11;;;;;;;3.60;3.40;;;24.60;51.50;;;;;;4947600;28;20225;-64
2023/09/18 00:22:37;;;;;;;3.03;2.83;;;24.60;51.60;;;;;;4944702;28;20224;-66
2023/09/18 00:25:03;;;;;;;3.13;2.93;;;24.60;51.50;;;;;;4946445;28;20979;-65
2023/09/18 00:27:29;;;;;;;3.00;2.90;;;24.60;51.60;;;;;;4950369;28;20248;-63
2023/09/18 00:29:55;;;;;;;3.50;3.30;;;24.60;51.50;;;;;;4950596;28;20459;-67
2023/09/18 00:32:20;;;;;;;3.17;2.97;;;24.60;51.60;;;;;;4946812;28;20809;-64
2023/09/18 00:34:46;;;;;;;3.53;3.33;;;24.60;51.60;;;;;;4960930;28;20224;-66
2023/09/18 00:37:12;;;;;;;3.00;2.80;;;24.60;51.60;;;;;;4966167;28;20243;-63
2023/09/18 00:39:38;;;;;;;3.87;3.67;;;24.60;51.50;;;;;;4965863;28;20255;-65
2023/09/18 00:42:04;;;;;;;3.63;3.43;;;24.60;51.60;;;;;;4965287;28;20819;-68
2023/09/18 00:44:29;;;;;;;3.37;3.20;;;24.60;51.60;;;;;;4966507;28;20473;-64
2023/09/18 00:46:55;;;;;;;3.07;2.87;;;24.60;51.60;;;;;;4967046;28;20235;-64
2023/09/18 00:49:22;;;;;;;3.47;3.27;;;24.60;51.60;;;;;;4968759;28;20234;-64
2023/09/18 00:51:49;;;;;;;2.80;2.70;;;24.60;51.60;;;;;;4965472;28;20597;-65
2023/09/18 00:54:18;;;;;;;3.80;3.50;;;24.60;51.60;;;;;;4969765;28;20484;-64
2023/09/18 00:56:48;;;;;;;3.13;3.00;;;24.60;51.60;;;;;;4967318;28;20508;-66
2023/09/18 00:59:14;;;;;;;3.30;3.10;;;24.60;51.60;;;;;;4968128;28;21052;-67
2023/09/18 01:01:41;;;;;;;3.40;3.20;;;24.60;51.60;;;;;;4957606;28;20479;-66
2023/09/18 01:04:07;;;;;;;3.33;3.17;;;24.60;51.60;;;;;;4966056;28;20224;-67
2023/09/18 01:06:33;;;;;;;3.10;3.00;;;24.60;51.60;;;;;;4965080;28;20465;-66
2023/09/18 01:08:59;;;;;;;3.00;2.80;;;24.60;51.70;;;;;;4963858;28;20290;-64
2023/09/18 01:12:03;;;;;;;3.70;3.50;;;24.60;51.70;;;;;;4969334;28;21232;-64
2023/09/18 01:14:42;;;;;;;3.20;3.00;;;24.60;51.60;;;;;;4965154;28;20473;-67
2023/09/18 01:17:10;;;;;;;3.50;3.30;;;24.60;51.60;;;;;;4964208;28;20559;-66
2023/09/18 01:19:46;;;;;;;3.30;3.10;;;24.60;51.70;;;;;;4963327;28;20481;-66
2023/09/18 01:22:14;;;;;;;2.80;2.70;;;24.60;51.70;;;;;;4966669;28;20551;-64
2023/09/18 01:24:41;;;;;;;3.13;3.03;;;24.60;51.70;;;;;;4964354;28;20473;-65
2023/09/18 01:27:16;;;;;;;3.47;3.27;;;24.60;51.70;;;;;;4967922;28;20472;-67
2023/09/18 01:29:45;;;;;;;3.53;3.33;;;24.60;51.70;;;;;;4966720;28;20639;-63
2023/09/18 01:32:11;;;;;;;3.23;3.03;;;24.60;51.70;;;;;;4966117;28;20982;-67
2023/09/18 01:34:45;;;;;;;3.47;3.27;;;24.60;51.70;;;;;;4966530;28;20498;-66
2023/09/18 01:37:12;;;;;;;3.47;3.27;;;24.60;51.70;;;;;;4964785;28;20246;-67
2023/09/18 01:39:39;;;;;;;3.60;3.40;;;24.60;51.70;;;;;;4963541;28;20461;-65
2023/09/18 01:42:06;;;;;;;3.20;3.00;;;24.50;51.60;;;;;;4964144;28;20556;-63
2023/09/18 01:44:33;;;;;;;3.20;3.00;;;24.60;51.70;;;;;;4965070;28;20461;-64
2023/09/18 01:46:59;;;;;;;3.50;3.30;;;24.60;51.70;;;;;;4965408;28;20567;-65
2023/09/18 01:49:38;;;;;;;3.70;3.40;;;24.60;51.70;;;;;;4969143;28;20477;-67
2023/09/18 01:52:05;;;;;;;3.40;3.20;;;24.60;51.70;;;;;;4964750;28;20476;-65
2023/09/18 01:54:32;;;;;;;3.30;3.10;;;24.60;51.70;;;;;;4963452;28;22807;-64
2023/09/18 01:56:57;;;;;;;3.50;3.30;;;24.50;51.60;;;;;;4965099;28;20597;-61
2023/09/18 01:59:23;;;;;;;3.70;3.50;;;24.50;51.60;;;;;;4964878;28;20461;-67
2023/09/18 02:01:50;;;;;;;3.23;3.10;;;24.60;51.80;;;;;;4964778;28;20787;-64
2023/09/18 02:04:16;;;;;;;3.60;3.40;;;24.60;51.70;;;;;;4967255;28;20531;-67
2023/09/18 02:06:42;;;;;;;3.57;3.37;;;24.60;51.70;;;;;;4967162;28;21141;-62
2023/09/18 02:09:11;;;;;;;3.67;3.47;;;24.50;51.70;;;;;;4966698;28;20466;-64
2023/09/18 02:11:41;;;;;;;3.30;3.10;;;24.60;51.80;;;;;;4964270;28;20271;-65
2023/09/18 02:14:09;;;;;;;4.07;3.60;;;24.60;51.70;;;;;;4965984;28;20969;-64
2023/09/18 02:16:37;;;;;;;3.47;3.27;;;24.60;51.80;;;;;;4964448;28;22495;-65
2023/09/18 02:19:03;;;;;;;3.63;3.43;;;24.60;51.80;;;;;;4966015;28;20493;-63
2023/09/18 02:21:29;;;;;;;3.20;2.90;;;24.50;51.60;;;;;;4967323;28;20553;-64
2023/09/18 02:23:55;;;;;;;3.80;3.50;;;24.60;51.80;;;;;;4966683;28;20911;-65
2023/09/18 02:26:22;;;;;;;3.53;3.33;;;24.50;51.70;;;;;;4964768;28;20466;-62
2023/09/18 02:28:48;;;;;;;3.60;3.40;;;24.50;51.70;;;;;;4962721;28;20232;-62
2023/09/18 02:31:13;;;;;;;3.63;3.43;;;24.60;51.80;;;;;;4964722;28;20936;-62
2023/09/18 02:33:40;;;;;;;3.50;3.30;;;24.50;51.70;;;;;;4966478;28;20273;-66
2023/09/18 02:36:05;;;;;;;3.30;3.20;;;24.60;51.80;;;;;;4965018;28;20220;-64
2023/09/18 02:38:32;;;;;;;3.53;3.33;;;24.50;51.70;;;;;;4968690;28;20476;-62
2023/09/18 02:40:58;;;;;;;3.20;3.10;;;24.50;51.70;;;;;;4963539;28;20223;-63
2023/09/18 02:43:24;;;;;;;3.70;3.50;;;24.50;51.70;;;;;;4964522;28;20513;-67
2023/09/18 02:45:50;;;;;;;3.47;3.27;;;24.50;51.70;;;;;;4962680;28;20255;-64
2023/09/18 02:48:16;;;;;;;3.33;3.13;;;24.50;51.70;;;;;;4945692;28;20224;-67
2023/09/18 02:50:41;;;;;;;3.03;2.93;;;24.60;51.80;;;;;;4944220;28;20475;-62
2023/09/18 02:53:11;;;;;;;3.43;3.23;;;24.50;51.70;;;;;;4946254;28;20220;-64
2023/09/18 02:55:37;;;;;;;3.37;3.17;;;24.60;51.80;;;;;;4944511;28;20227;-66
2023/09/18 02:58:03;;;;;;;3.70;3.50;;;24.60;51.80;;;;;;4945411;28;20490;-66
2023/09/18 03:00:28;;;;;;;3.40;3.20;;;24.50;51.70;;;;;;4944384;28;21114;-66
2023/09/18 03:02:54;;;;;;;3.30;3.10;;;24.60;51.80;;;;;;4944299;28;20517;-66
2023/09/18 03:05:19;;;;;;;3.47;3.27;;;24.50;51.70;;;;;;4941411;28;20244;-64
2023/09/18 03:07:45;;;;;;;3.30;3.10;;;24.50;51.70;;;;;;4949382;28;21008;-62
2023/09/18 03:10:13;;;;;;;3.43;3.23;;;24.50;51.70;;;;;;4946538;28;20231;-62
2023/09/18 03:12:39;;;;;;;3.33;3.13;;;24.60;51.80;;;;;;4944948;28;20228;-66
2023/09/18 03:15:06;;;;;;;3.53;3.33;;;24.50;51.70;;;;;;4943752;28;20477;-66
2023/09/18 03:17:32;;;;;;;3.40;3.20;;;24.50;51.70;;;;;;4944491;28;20483;-64
2023/09/18 03:19:57;;;;;;;3.53;3.33;;;24.60;51.80;;;;;;4945553;28;20567;-65
2023/09/18 03:22:23;;;;;;;3.60;3.40;;;24.50;51.60;;;;;;4946033;28;20217;-67
2023/09/18 03:24:48;;;;;;;3.60;3.40;;;24.50;51.80;;;;;;4948185;28;20340;-66
2023/09/18 03:27:14;;;;;;;3.20;3.10;;;24.50;51.80;;;;;;4947710;28;20295;-63
2023/09/18 03:29:39;;;;;;;3.43;3.23;;;24.50;51.70;;;;;;4946635;28;20291;-64
2023/09/18 03:32:05;;;;;;;3.27;3.07;;;24.50;51.70;;;;;;4948623;28;20228;-63
2023/09/18 03:34:30;;;;;;;3.70;3.50;;;24.50;51.70;;;;;;4950440;28;20255;-63
2023/09/18 03:36:56;;;;;;;3.17;3.07;;;24.50;51.80;;;;;;4951941;28;20223;-65
2023/09/18 03:39:21;;;;;;;3.40;3.20;;;24.50;51.80;;;;;;4947930;28;20259;-67
2023/09/18 03:41:47;;;;;;;3.30;3.10;;;24.50;51.70;;;;;;4948787;28;20236;-65
2023/09/18 03:44:13;;;;;;;3.70;3.50;;;24.50;51.80;;;;;;4946508;28;20224;-67
2023/09/18 03:46:38;;;;;;;3.63;3.43;;;24.50;51.80;;;;;;4943411;28;20745;-65
2023/09/18 03:49:04;;;;;;;3.70;3.50;;;24.50;51.80;;;;;;4962015;28;20220;-64
2023/09/18 03:51:29;;;;;;;3.17;2.97;;;24.50;51.80;;;;;;4947755;28;20231;-64
2023/09/18 03:53:55;;;;;;;3.30;3.20;;;24.50;51.80;;;;;;4950653;28;21068;-62
2023/09/18 03:56:21;;;;;;;3.43;3.23;;;24.50;51.80;;;;;;4945163;28;20283;-66
2023/09/18 03:58:49;;;;;;;3.97;3.57;;;24.50;51.80;;;;;;4945948;28;20245;-67
2023/09/18 04:01:15;;;;;;;3.90;3.60;;;24.50;51.80;;;;;;4946310;28;20466;-63
2023/09/18 04:03:41;;;;;;;3.60;3.40;;;24.50;51.80;;;;;;4946493;28;20871;-64
2023/09/18 04:06:07;;;;;;;3.70;3.50;;;24.50;51.80;;;;;;4947533;28;20466;-66
2023/09/18 04:08:32;;;;;;;4.00;3.80;;;24.50;52.00;;;;;;4947491;28;20220;-68
2023/09/18 04:10:58;;;;;;;4.07;3.87;;;24.50;51.80;;;;;;4947410;28;20283;-64
2023/09/18 04:13:24;;;;;;;3.97;3.70;;;24.50;51.80;;;;;;4957225;28;20220;-65
2023/09/18 04:15:50;;;;;;;3.47;3.27;;;24.50;51.80;;;;;;4968658;28;20219;-64
2023/09/18 04:18:15;;;;;;;3.37;3.17;;;24.50;51.80;;;;;;4965905;28;20547;-69
2023/09/18 04:20:41;;;;;;;3.60;3.40;;;24.50;51.80;;;;;;4966186;28;20741;-63
2023/09/18 04:23:23;;;;;;;3.97;3.77;;;24.50;51.80;;;;;;4969196;28;20748;-64
2023/09/18 04:25:50;;;;;;;3.67;3.40;;;24.50;51.80;;;;;;4967738;28;20228;-65
2023/09/18 04:28:18;;;;;;;3.70;3.50;;;24.50;51.90;;;;;;4967857;28;20518;-65
2023/09/18 04:30:44;;;;;;;3.70;3.50;;;24.50;51.90;;;;;;4970646;28;20477;-63
2023/09/18 04:33:09;;;;;;;3.77;3.57;;;24.50;51.90;;;;;;4970326;28;20481;-63
2023/09/18 04:35:35;;;;;;;4.03;3.83;;;24.50;52.60;;;;;;4970734;28;20228;-62
2023/09/18 04:38:00;;;;;;;3.57;3.37;;;24.50;51.80;;;;;;4957425;28;20235;-66
2023/09/18 04:40:26;;;;;;;3.60;3.40;;;24.50;51.90;;;;;;4967080;28;20682;-62
2023/09/18 04:42:52;;;;;;;4.30;3.60;;;24.50;51.90;;;;;;4968873;28;20230;-66
2023/09/18 04:45:18;;;;;;;3.57;3.37;;;24.50;51.80;;;;;;4969252;28;20320;-64
2023/09/18 04:47:43;;;;;;;4.10;3.80;;;24.50;52.60;;;;;;4969020;28;20323;-61
2023/09/18 04:50:09;;;;;;;3.70;3.40;;;24.50;51.80;;;;;;4966430;28;20223;-67
2023/09/18 04:52:40;;;;;;;4.27;3.97;;;24.50;51.80;;;;;;4968062;28;20219;-62
2023/09/18 04:55:06;;;;;;;3.30;3.07;;;24.50;51.80;;;;;;4964684;28;21093;-63
2023/09/18 04:57:32;;;;;;;3.97;3.77;;;24.50;51.80;;;;;;4968086;28;20484;-65
2023/09/18 04:59:57;;;;;;;4.60;4.30;;;24.50;51.80;;;;;;4968620;28;20322;-68
2023/09/18 05:02:25;;;;;;;3.53;3.33;;;24.50;51.70;;;;;;4968997;28;20244;-66
2023/09/18 05:04:50;;;;;;;3.77;3.43;;;24.50;51.80;;;;;;4966280;28;20787;-64
2023/09/18 05:07:16;;;;;;;3.90;3.70;;;24.50;51.80;;;;;;4968802;28;20461;-65
2023/09/18 05:09:42;;;;;;;3.70;3.50;;;24.60;51.80;;;;;;4967279;28;20224;-63
2023/09/18 05:12:13;;;;;;;3.13;2.83;;;24.50;51.70;;;;;;4968024;28;20735;-69
2023/09/18 05:14:43;;;;;;;3.43;3.23;;;24.60;51.80;;;;;;4967595;28;20254;-73
2023/09/18 05:17:16;;;;;;;3.40;3.20;;;24.60;51.80;;;;;;4967341;28;20481;-64
2023/09/18 05:19:42;;;;;;;3.77;3.57;;;24.60;51.80;;;;;;4967098;28;22350;-66
2023/09/18 05:22:10;;;;;;;2.87;2.77;;;24.60;51.80;;;;;;4966549;28;20503;-64
2023/09/18 05:24:36;;;;;;;3.00;2.90;;;24.60;51.80;;;;;;4967327;28;21269;-64
2023/09/18 05:27:02;;;;;;;3.60;3.40;;;24.60;51.80;;;;;;4963913;28;20519;-64
2023/09/18 05:29:28;;;;;;;3.30;3.17;;;24.60;51.80;;;;;;4962102;28;20224;-65
2023/09/18 05:31:53;;;;;;;3.23;3.03;;;24.60;51.90;;;;;;4964004;28;20531;-63
2023/09/18 05:34:19;;;;;;;3.23;3.03;;;24.60;51.80;;;;;;4967838;28;20242;-67
2023/09/18 05:36:44;;;;;;;3.87;3.50;;;24.60;51.80;;;;;;4969086;28;20223;-62
2023/09/18 05:39:12;;;;;;;3.63;3.47;;;24.60;51.80;;;;;;4967348;28;21760;-66
2023/09/18 05:41:41;;;;;;;4.60;4.20;;;24.60;51.80;;;;;;4966484;28;20310;-63
2023/09/18 05:44:07;;;;;;;3.67;3.47;;;24.60;51.80;;;;;;4966252;28;20469;-64
2023/09/18 05:46:36;;;;;;;3.80;3.53;;;24.60;51.80;;;;;;4967494;28;20465;-63
2023/09/18 05:49:02;;;;;;;3.60;3.40;;;24.60;51.80;;;;;;4968016;28;20601;-62
2023/09/18 05:51:28;;;;;;;3.97;3.77;;;24.60;51.80;;;;;;4963902;28;20473;-64
2023/09/18 05:53:53;;;;;;;4.83;4.53;;;24.60;51.80;;;;;;4966515;28;20462;-64
2023/09/18 05:56:19;;;;;;;4.00;3.80;;;24.60;51.80;;;;;;4966318;28;20236;-63
2023/09/18 05:58:44;;;;;;;3.70;3.50;;;24.60;51.80;;;;;;4973987;28;20232;-61
2023/09/18 06:01:10;;;;;;;4.00;3.70;;;24.60;51.70;;;;;;4975420;28;21779;-64
2023/09/18 06:03:36;;;;;;;3.90;3.60;;;24.60;51.70;;;;;;4973945;28;20228;-62
2023/09/18 06:06:02;;;;;;;3.73;3.30;;;24.60;51.70;;;;;;4975466;28;20227;-63
2023/09/18 06:08:30;;;;;;;4.00;3.70;;;24.60;51.80;;;;;;4976044;28;20235;-61
2023/09/18 06:10:55;;;;;;;3.60;3.40;;;24.60;51.80;;;;;;4973609;28;20545;-64
2023/09/18 06:13:22;;;;;;;3.87;3.67;;;24.60;51.70;;;;;;4974870;28;20740;-62
2023/09/18 06:15:47;;;;;;;4.70;4.30;;;24.60;51.80;;;;;;4975927;28;20294;-62
2023/09/18 06:18:13;;;;;;;4.20;4.00;;;24.60;51.80;;;;;;4973097;28;20560;-65
2023/09/18 06:20:41;;;;;;;4.37;4.07;;;24.60;51.80;;;;;;4971235;28;20227;-64
2023/09/18 06:23:06;;;;;;;4.13;3.93;;;24.60;51.80;;;;;;4976335;28;20259;-61
2023/09/18 06:25:32;;;;;;;3.20;3.00;;;24.60;51.80;;;;;;4974739;28;20557;-61
2023/09/18 06:27:58;;;;;;;4.33;3.93;;;24.60;51.80;;;;;;4974023;28;20227;-62
2023/09/18 06:30:23;;;;;;;3.80;3.60;;;24.60;51.80;;;;;;4975145;28;20224;-63
2023/09/18 06:32:49;;;;;;;3.97;3.67;;;24.60;51.80;;;;;;4973068;28;21042;-62
2023/09/18 06:35:14;;;;;;;3.83;3.63;;;24.60;51.80;;;;;;4973974;28;20246;-62
2023/09/18 06:37:40;;;;;;;4.43;4.07;;;24.60;51.80;;;;;;4977923;28;20236;-62
2023/09/18 06:40:06;;;;;;;3.70;3.50;;;24.60;52.60;;;;;;4978526;28;20240;-62
2023/09/18 06:42:32;;;;;;;4.10;3.80;;;24.60;51.80;;;;;;4973778;28;20211;-62
2023/09/18 06:44:58;;;;;;;3.67;3.37;;;24.60;51.80;;;;;;4974066;28;20484;-63
2023/09/18 06:47:24;;;;;;;4.00;3.80;;;24.60;52.60;;;;;;4975996;28;20267;-63
2023/09/18 06:49:51;;;;;;;3.97;3.77;;;24.60;51.70;;;;;;4973188;28;20480;-62
2023/09/18 06:52:16;;;;;;;3.90;3.70;;;24.60;52.50;;;;;;4971773;28;20254;-64
2023/09/18 06:54:43;;;;;;;3.70;3.50;;;24.60;51.80;;;;;;4973028;28;20979;-62
2023/09/18 06:57:09;;;;;;;3.73;3.50;;;24.60;52.50;;;;;;4977110;28;20632;-62
2023/09/18 06:59:35;;;;;;;4.10;3.90;;;24.60;51.80;;;;;;4976871;28;21015;-64
2023/09/18 07:02:01;;;;;;;3.40;3.20;;;24.60;51.80;;;;;;4976499;28;20366;-63
2023/09/18 07:04:27;;;;;;;4.10;3.80;;;24.60;51.80;;;;;;4979334;28;20663;-61
2023/09/18 07:06:56;;;;;;;3.30;3.00;;;24.60;51.80;;;;;;4974309;28;20476;-63
2023/09/18 07:09:23;;;;;;;3.80;3.60;;;24.60;51.80;;;;;;4970575;28;20235;-62
2023/09/18 07:11:49;;;;;;;3.47;3.27;;;24.60;51.80;;;;;;4977660;28;20608;-61
2023/09/18 07:14:14;;;;;;;3.57;3.37;;;24.60;51.80;;;;;;4978861;28;20552;-62
2023/09/18 07:16:40;;;;;;;3.47;3.27;;;24.60;51.80;;;;;;4977764;28;20585;-64
2023/09/18 07:19:05;;;;;;;4.20;3.90;;;24.60;51.80;;;;;;4977484;28;20704;-63
2023/09/18 07:21:31;;;;;;;3.70;3.50;;;24.60;51.80;;;;;;4979261;28;20262;-63
2023/09/18 07:23:56;;;;;;;3.80;3.60;;;24.60;51.80;;;;;;4978253;28;20703;-62
2023/09/18 07:26:22;;;;;;;3.63;3.43;;;24.60;51.80;;;;;;4979210;28;20227;-67
2023/09/18 07:28:48;;;;;;;4.10;3.90;;;24.60;51.80;;;;;;4978676;28;20240;-62
2023/09/18 07:31:14;;;;;;;3.60;3.40;;;24.60;51.80;;;;;;4973152;28;20247;-62
2023/09/18 07:33:41;;;;;;;3.60;3.30;;;24.60;51.80;;;;;;4969792;28;20230;-62
2023/09/18 07:36:06;;;;;;;3.80;3.60;;;24.60;51.90;;;;;;4969420;28;20512;-62
2023/09/18 07:38:33;;;;;;;3.40;3.20;;;24.60;51.80;;;;;;4969167;28;20465;-67
2023/09/18 07:40:58;;;;;;;3.70;3.40;;;24.60;51.80;;;;;;4970110;28;20215;-64
2023/09/18 07:43:25;;;;;;;3.03;2.87;;;24.60;51.90;;;;;;4969670;28;20465;-66
2023/09/18 07:45:50;;;;;;;3.13;2.93;;;24.60;51.80;;;;;;4968033;28;20221;-66
2023/09/18 07:48:19;;;;;;;3.87;3.67;;;24.60;51.80;;;;;;4970205;28;20476;-63
2023/09/18 07:50:49;;;;;;;3.30;3.10;;;24.60;51.80;;;;;;4967722;28;20227;-62
2023/09/18 07:53:15;;;;;;;3.30;3.10;;;24.60;51.80;;;;;;4968740;28;20975;-63
2023/09/18 07:55:41;;;;;;;3.13;2.93;;;24.60;51.80;;;;;;4968897;28;21141;-64
2023/09/18 07:58:06;;;;;;;3.30;3.10;;;24.60;51.80;;;;;;4973944;28;20474;-63
2023/09/18 08:00:33;;;;;;;3.07;2.93;;;24.60;51.80;;;;;;4969728;28;20227;-64
2023/09/18 08:03:00;;;;;;;3.40;3.20;;;24.60;51.80;;;;;;4970382;28;20345;-65
2023/09/18 08:05:28;;;;;;;3.30;3.10;;;24.60;51.90;;;;;;4968799;28;20859;-64
2023/09/18 08:07:56;;;;;;;3.10;2.90;;;24.60;51.90;;;;;;4969030;28;20508;-63
2023/09/18 08:10:22;;;;;;;6.40;2.73;;;24.60;51.80;;;;;;4969087;28;20841;-65
2023/09/18 08:12:50;;;;;;;3.00;2.80;;;24.60;51.80;;;;;;4971990;28;20525;-69
2023/09/18 08:15:15;;;;;;;2.80;2.70;;;24.60;51.80;;;;;;4968915;28;20555;-65
2023/09/18 08:17:42;;;;;;;3.10;2.80;;;24.60;51.80;;;;;;4968301;28;20997;-65
2023/09/18 08:20:13;;;;;;;2.80;2.60;;;24.60;51.80;;;;;;4967164;28;20830;-65
2023/09/18 08:22:40;;;;;;;2.50;2.30;;;24.60;51.80;;;;;;4973239;28;20473;-66
2023/09/18 08:25:10;;;;;;;2.87;2.77;;;24.60;51.80;;;;;;4966972;28;20584;-66
2023/09/18 08:27:40;;;;;;;2.60;2.50;;;24.60;51.80;;;;;;4970955;28;20478;-65
2023/09/18 08:30:06;;;;;;;2.40;2.30;;;24.60;51.90;;;;;;4968086;28;20497;-65
2023/09/18 08:32:33;;;;;;;2.90;2.77;;;24.60;51.90;;;;;;4971637;28;20537;-67
2023/09/18 08:35:01;;;;;;;2.33;2.23;;;24.60;51.80;;;;;;4968778;28;20223;-68
2023/09/18 08:37:26;;;;;;;2.60;2.50;;;24.60;52.60;;;;;;4970313;28;20851;-65
2023/09/18 08:39:52;;;;;;;2.40;2.30;;;24.60;51.80;;;;;;4966903;28;20485;-67
2023/09/18 08:42:20;;;;;;;2.87;2.67;;;24.60;51.80;;;;;;4968153;28;20333;-69
2023/09/18 08:44:48;;;;;;;2.70;2.60;;;24.60;51.80;;;;;;4968602;28;20223;-66
2023/09/18 08:47:15;;;;;;;2.60;2.50;;;24.60;51.80;;;;;;4966628;28;20473;-67
2023/09/18 08:49:42;;;;;;;2.10;2.00;;;24.60;51.80;;;;;;4968240;28;20471;-68
2023/09/18 08:52:08;;;;;;;2.40;2.30;;;24.60;51.80;;;;;;4968861;28;21069;-69
2023/09/18 08:54:34;;;;;;;2.43;2.33;;;24.60;51.80;;;;;;4969609;28;20549;-68
2023/09/18 08:56:59;;;;;;;2.40;2.30;;;24.60;51.80;;;;;;4969306;28;20229;-66
2023/09/18 08:59:27;;;;;;;2.20;2.10;;;24.60;51.80;;;;;;4971534;28;20572;-64
2023/09/18 09:01:53;;;;;;;1.90;1.80;;;24.60;51.80;;;;;;4966031;28;20248;-69
2023/09/18 09:04:19;;;;;;;2.10;2.00;;;24.60;51.80;;;;;;4968200;28;20524;-65
2023/09/18 09:06:44;;;;;;;2.20;2.10;;;24.60;51.80;;;;;;4965923;28;20457;-65
2023/09/18 09:09:12;;;;;;;2.40;2.07;;;24.60;51.80;;;;;;4968342;28;20232;-64
2023/09/18 09:11:38;;;;;;;1.90;1.80;;;24.60;51.80;;;;;;4968750;28;20238;-65
2023/09/18 09:14:13;;;;;;;2.10;2.00;;;24.60;51.80;;;;;;4971608;28;20872;-66
2023/09/18 09:16:40;;;;;;;2.07;1.97;;;24.60;51.70;;;;;;4967668;28;20243;-65
2023/09/18 09:19:05;;;;;;;1.90;1.80;;;24.60;51.80;;;;;;4969450;28;20481;-65
2023/09/18 09:21:43;;;;;;;1.90;1.80;;;24.60;51.80;;;;;;4970242;28;20467;-66
2023/09/18 09:24:13;;;;;;;2.17;2.07;;;24.60;51.80;;;;;;4967013;28;20251;-65
2023/09/18 09:26:42;;;;;;;2.17;2.07;;;24.60;51.70;;;;;;4969229;28;20509;-66
2023/09/18 09:29:23;;;;;;;2.00;1.90;;;24.60;51.80;;;;;;4969221;28;20486;-65
2023/09/18 09:31:50;;;;;;;2.20;2.10;;;24.60;51.70;;;;;;4967286;28;20455;-66
2023/09/18 09:34:28;;;;;;;2.13;1.70;;;24.60;51.70;;;;;;4968619;28;20466;-64
2023/09/18 09:36:54;;;;;;;1.70;1.60;;;24.60;51.80;;;;;;4970661;28;20454;-67
2023/09/18 09:39:21;;;;;;;1.70;1.60;;;24.60;51.80;;;;;;4968124;28;20477;-64
2023/09/18 09:41:49;;;;;;;1.87;1.77;;;24.60;51.70;;;;;;4964820;28;20980;-65
2023/09/18 09:44:14;;;;;;;1.80;1.70;;;24.60;51.70;;;;;;4961642;28;20584;-69
2023/09/18 09:46:51;;;;;;;1.50;1.40;;;24.60;51.70;;;;;;4967909;28;21373;-66
2023/09/18 09:49:19;;;;;;;2.07;1.97;;;24.60;51.70;;;;;;4968738;28;20297;-65
2023/09/18 09:51:45;;;;;;;1.80;1.70;;;24.60;51.70;;;;;;4966783;28;20525;-68
2023/09/18 09:54:12;;;;;;;1.97;1.77;;;24.60;51.70;;;;;;4968665;28;20457;-69
2023/09/18 09:56:50;;;;;;;1.90;1.80;;;24.60;51.70;;;;;;4966636;28;21072;-66
2023/09/18 09:59:17;;;;;;;2.27;1.87;;;24.60;51.70;;;;;;4965820;28;20473;-66
2023/09/18 10:01:48;;;;;;;1.57;1.47;;;24.60;51.70;;;;;;4965063;28;20486;-68
2023/09/18 10:04:19;;;;;;;1.57;1.47;;;24.60;51.60;;;;;;4966604;28;20457;-67
2023/09/18 10:06:51;;;;;;;1.87;1.77;;;24.60;51.70;;;;;;4965580;28;20470;-64
2023/09/18 10:09:19;;;;;;;1.70;1.60;;;24.60;51.60;;;;;;4965349;28;20515;-66
2023/09/18 10:11:48;;;;;;;1.67;1.57;;;24.60;51.70;;;;;;4963962;28;20469;-65
2023/09/18 10:14:20;;;;;;;1.70;1.60;;;24.60;51.70;;;;;;4965344;28;20490;-61
2023/09/18 10:16:50;;;;;;;1.87;1.77;;;24.60;51.60;;;;;;4963255;28;21263;-65
2023/09/18 10:19:37;;;;;;;1.73;1.63;;;24.60;51.60;;;;;;4965513;28;20471;-68
2023/09/18 10:22:32;;;;;;;1.60;1.50;;;24.60;51.60;;;;;;4960965;28;20469;-67
2023/09/18 10:25:03;;;;;;;1.60;1.50;;;24.60;51.60;;;;;;4964415;28;20584;-68
2023/09/18 10:27:31;;;;;;;1.63;1.53;;;24.60;51.60;;;;;;4960655;28;20465;-68
2023/09/18 10:29:58;;;;;;;1.50;1.40;;;24.60;52.30;;;;;;4969232;28;20458;-67
2023/09/18 10:32:25;;;;;;;1.40;1.30;;;24.60;51.60;;;;;;4966998;28;20471;-64
2023/09/18 10:34:51;;;;;;;1.33;1.23;;;24.60;51.60;;;;;;4969652;28;20996;-68
2023/09/18 10:37:18;;;;;;;1.60;1.50;;;24.60;51.60;;;;;;4972162;28;20481;-64
2023/09/18 10:39:48;;;;;;;1.30;1.20;;;24.70;51.70;;;;;;4969886;28;20546;-65
2023/09/18 10:42:16;;;;;;;1.60;1.50;;;24.60;51.60;;;;;;4971464;28;20468;-67
2023/09/18 10:44:43;;;;;;;1.40;1.30;;;24.60;51.60;;;;;;4971153;28;20461;-68
2023/09/18 10:47:11;;;;;;;1.50;1.40;;;24.70;51.60;;;;;;4971604;28;20478;-64
2023/09/18 10:49:37;;;;;;;1.57;1.47;;;24.70;51.60;;;;;;4966572;28;20463;-67
2023/09/18 10:52:03;;;;;;;1.53;1.10;;;24.70;51.70;;;;;;4951654;28;20488;-65
2023/09/18 10:54:31;;;;;;;1.43;1.33;;;24.70;51.60;;;;;;4959076;28;20233;-66
2023/09/18 10:56:57;;;;;;;1.30;1.20;;;24.70;51.60;;;;;;4965643;28;20569;-64
2023/09/18 10:59:23;;;;;;;1.70;1.60;;;24.70;52.30;;;;;;4970017;28;20480;-67
2023/09/18 11:01:49;;;;;;;1.37;1.27;;;24.70;51.60;;;;;;4971204;28;20987;-68
2023/09/18 11:04:19;;;;;;;1.70;1.60;;;24.70;51.60;;;;;;4972550;28;20314;-66
2023/09/18 11:06:54;;;;;;;1.50;1.40;;;24.70;51.50;;;;;;4969869;28;20973;-64
2023/09/18 11:09:21;;;;;;;1.67;1.57;;;24.70;51.60;;;;;;4968505;28;20898;-64
2023/09/18 11:11:58;;;;;;;1.30;1.20;;;24.70;51.60;;;;;;4973058;28;20468;-65
2023/09/18 11:14:49;;;;;;;1.40;1.30;;;24.70;51.60;;;;;;4971076;28;20612;-64
2023/09/18 11:17:35;;;;;;;1.30;1.20;;;24.70;51.60;;;;;;4972228;28;20465;-63
2023/09/18 11:20:11;;;;;;;1.30;1.20;;;24.70;51.60;;;;;;4968193;28;20973;-64
2023/09/18 11:22:57;;;;;;;1.40;1.30;;;24.70;51.60;;;;;;4972928;28;20489;-65
2023/09/18 11:25:37;;;;;;;1.23;1.13;;;24.70;51.60;;;;;;4971086;28;20461;-65
2023/09/18 11:28:03;;;;;;;1.27;1.17;;;24.70;51.60;;;;;;4971325;28;20476;-64
2023/09/18 11:30:29;;;;;;;1.30;1.20;;;24.70;51.60;;;;;;4972911;28;21275;-64
2023/09/18 11:32:56;;;;;;;1.20;1.10;;;24.70;51.60;;;;;;4973390;28;20463;-64
2023/09/18 11:35:21;;;;;;;1.40;1.30;;;24.70;51.60;;;;;;4968762;28;20476;-69
2023/09/18 11:38:02;;;;;;;1.30;1.20;;;24.70;51.60;;;;;;4969921;28;22591;-64
2023/09/18 11:40:34;;;;;;;1.77;0.90;;;24.70;51.60;;;;;;4967529;28;20583;-65
2023/09/18 11:43:31;;;;;;;1.23;1.13;;;24.70;51.60;;;;;;4968027;28;20507;-67
2023/09/18 11:45:59;;;;;;;1.30;1.20;;;24.80;51.60;;;;;;4970216;28;20508;-64
2023/09/18 11:48:29;;;;;;;1.30;1.20;;;24.80;51.70;;;;;;4971107;28;21709;-64
2023/09/18 11:50:57;;;;;;;1.20;1.10;;;24.80;52.40;;;;;;4968688;28;20477;-64
2023/09/18 11:53:24;;;;;;;1.00;1.00;;;24.80;51.70;;;;;;4975477;28;20450;-64
2023/09/18 11:55:50;;;;;;;4.30;1.00;;;24.80;51.70;;;;;;4970518;28;20608;-65
2023/09/18 11:58:16;;;;;;;1.50;1.00;;;24.80;51.70;;;;;;4969013;28;20481;-68
2023/09/18 12:00:47;;;;;;;1.20;1.10;;;24.80;51.60;;;;;;4968546;28;20362;-63
2023/09/18 12:03:27;;;;;;;1.27;1.17;;;24.80;51.60;;;;;;4971664;28;20858;-65
2023/09/18 12:06:01;;;;;;;1.10;1.10;;;24.80;51.60;;;;;;4965049;28;20469;-66
2023/09/18 12:08:30;;;;;;;0.90;0.90;;;24.80;51.60;;;;;;4969305;28;20477;-66
2023/09/18 12:10:57;;;;;;;0.90;0.90;;;24.80;51.60;;;;;;4969038;28;20473;-65
2023/09/18 12:13:26;;;;;;;1.10;0.90;;;24.80;51.50;;;;;;4968126;28;20470;-63
2023/09/18 12:16:06;;;;;;;1.10;1.00;;;24.80;51.60;;;;;;4968026;28;20464;-62
2023/09/18 12:18:37;;;;;;;0.90;0.90;;;24.80;51.50;;;;;;4968494;28;20540;-65
2023/09/18 12:21:06;;;;;;;1.20;1.10;;;24.80;51.50;;;;;;4972459;28;20527;-65
2023/09/18 12:23:45;;;;;;;1.10;1.00;;;24.80;51.50;;;;;;4971270;28;21239;-64
2023/09/18 12:26:13;;;;;;;1.00;1.00;;;24.80;51.50;;;;;;4967643;28;20679;-67
2023/09/18 12:28:43;;;;;;;1.00;1.00;;;24.80;51.60;;;;;;4966920;28;20468;-64
2023/09/18 12:31:13;;;;;;;1.30;1.20;;;24.80;51.50;;;;;;4965828;28;20473;-63
2023/09/18 12:33:40;;;;;;;1.53;1.20;;;24.80;51.50;;;;;;4968616;28;20993;-64
2023/09/18 12:36:07;;;;;;;0.97;0.90;;;24.80;51.50;;;;;;4967950;28;20540;-63
2023/09/18 12:38:34;;;;;;;1.13;1.03;;;24.80;51.50;;;;;;4967433;28;20862;-63
2023/09/18 12:41:07;;;;;;;1.07;1.00;;;24.80;51.50;;;;;;4966321;28;20524;-67
2023/09/18 12:43:35;;;;;;;1.30;1.20;;;24.80;51.40;;;;;;4966021;28;20584;-69
2023/09/18 12:46:01;;;;;;;1.17;1.07;;;24.80;51.40;;;;;;4966534;28;20459;-67
2023/09/18 12:48:27;;;;;;;1.43;1.33;;;24.80;51.50;;;;;;4968436;28;21195;-64
2023/09/18 12:50:53;;;;;;;1.20;1.10;;;24.80;51.40;;;;;;4970110;28;20472;-65